Time;durP1;ratioP1;P1;durP2;ratioP2;P2;SDS_P1;SDS_P2;PMS_P1;PMS_P2;Temp;Humidity;BMP_temperature;BMP_pressure;BME280_temperature;BME280_humidity;BME280_pressure;Samples;Min_cycle;Max_cycle;Signal;HPM_P1;HPM_P2
2021/07/04 00:01:42;;;;;;;;;;;24.80;46.40;;;;;;1513853;75;747;-62
2021/07/04 00:03:43;;;;;;;;;;;24.70;46.40;;;;;;1516242;76;1150;-65
2021/07/04 00:05:46;;;;;;;;;;;24.80;46.40;;;;;;1514058;76;711;-63
2021/07/04 00:07:48;;;;;;;;;;;24.80;46.40;;;;;;1520138;76;787;-64
2021/07/04 00:09:50;;;;;;;;;;;24.70;46.50;;;;;;1512862;76;1938;-64
2021/07/04 00:11:52;;;;;;;;;;;24.80;46.80;;;;;;1510256;76;721;-63
2021/07/04 00:13:54;;;;;;;;;;;24.70;46.70;;;;;;1508433;76;1164;-63
2021/07/04 00:15:55;;;;;;;;;;;24.70;46.70;;;;;;1509363;76;711;-63
2021/07/04 00:17:57;;;;;;;;;;;24.70;46.80;;;;;;1504654;76;785;-64
2021/07/04 00:19:59;;;;;;;;;;;24.80;46.80;;;;;;1511508;76;745;-66
2021/07/04 00:22:01;;;;;;;;;;;24.80;46.80;;;;;;1512712;76;748;-67
2021/07/04 00:24:03;;;;;;;;;;;24.70;46.80;;;;;;1510710;76;1067;-64
2021/07/04 00:26:05;;;;;;;;;;;24.70;46.80;;;;;;1508214;76;694;-64
2021/07/04 00:28:07;;;;;;;;;;;24.80;46.80;;;;;;1508457;76;691;-66
2021/07/04 00:30:10;;;;;;;;;;;24.80;46.80;;;;;;1502551;76;1940;-65
2021/07/04 00:32:12;;;;;;;;;;;24.80;46.90;;;;;;1502709;76;1178;-66
2021/07/04 00:34:14;;;;;;;;;;;24.80;46.80;;;;;;1505363;76;804;-65
2021/07/04 00:36:16;;;;;;;;;;;24.80;46.70;;;;;;1510109;76;771;-64
2021/07/04 00:38:17;;;;;;;;;;;24.80;46.70;;;;;;1513180;76;784;-66
2021/07/04 00:40:20;;;;;;;;;;;24.80;46.70;;;;;;1512026;76;915;-66
2021/07/04 00:42:22;;;;;;;;;;;24.80;46.70;;;;;;1517351;76;1156;-65
2021/07/04 00:44:24;;;;;;;;;;;24.80;46.80;;;;;;1515910;74;3159;-69
2021/07/04 00:46:30;;;;;;;;;;;24.80;46.90;;;;;;1519992;76;691;-69
2021/07/04 00:48:30;;;;;;;;;;;24.80;46.90;;;;;;1524786;76;1926;-69
2021/07/04 00:50:31;;;;;;;;;;;24.80;46.90;;;;;;1517554;76;1950;-69
2021/07/04 00:52:33;;;;;;;;;;;24.80;47.00;;;;;;1514975;76;759;-69
2021/07/04 00:54:36;;;;;;;;;;;24.80;47.00;;;;;;1511511;76;1186;-69
2021/07/04 00:56:38;;;;;;;;;;;24.70;47.00;;;;;;1519836;76;759;-68
2021/07/04 00:58:40;;;;;;;;;;;24.70;47.00;;;;;;1518656;76;802;-70
2021/07/04 01:00:42;;;;;;;;;;;24.80;47.10;;;;;;1515971;76;766;-67
2021/07/04 01:02:44;;;;;;;;;;;24.80;47.00;;;;;;1515482;77;835;-70
2021/07/04 01:04:46;;;;;;;;;;;24.70;47.10;;;;;;1517916;77;1077;-68
2021/07/04 01:06:48;;;;;;;;;;;24.70;47.10;;;;;;1513943;77;765;-70
2021/07/04 01:08:50;;;;;;;;;;;24.80;47.10;;;;;;1518769;76;808;-70
2021/07/04 01:10:51;;;;;;;;;;;24.80;47.00;;;;;;1514637;76;1939;-70
2021/07/04 01:12:54;;;;;;;;;;;24.70;47.10;;;;;;1516728;76;767;-68
2021/07/04 01:14:56;;;;;;;;;;;24.70;47.10;;;;;;1515042;76;1173;-70
2021/07/04 01:17:00;;;;;;;;;;;24.70;47.10;;;;;;1515670;77;802;-70
2021/07/04 01:19:02;;;;;;;;;;;24.80;47.10;;;;;;1520274;77;701;-70
2021/07/04 01:21:04;;;;;;;;;;;24.70;47.10;;;;;;1517475;76;706;-70
2021/07/04 01:23:07;;;;;;;;;;;24.80;47.10;;;;;;1515966;77;1192;-69
2021/07/04 01:25:10;;;;;;;;;;;24.70;47.10;;;;;;1514142;77;780;-69
2021/07/04 01:27:12;;;;;;;;;;;24.80;47.10;;;;;;1519189;76;676;-69
2021/07/04 01:29:14;;;;;;;;;;;24.70;47.20;;;;;;1510432;77;1941;-69
2021/07/04 01:31:16;;;;;;;;;;;24.80;47.20;;;;;;1516505;76;742;-68
2021/07/04 01:33:18;;;;;;;;;;;24.80;47.20;;;;;;1512561;76;1127;-69
2021/07/04 01:35:20;;;;;;;;;;;24.80;47.20;;;;;;1514889;76;733;-69
2021/07/04 01:37:21;;;;;;;;;;;24.80;47.20;;;;;;1518178;76;834;-69
2021/07/04 01:39:24;;;;;;;;;;;24.80;47.20;;;;;;1517888;76;815;-68
2021/07/04 01:41:26;;;;;;;;;;;24.80;47.30;;;;;;1513781;76;718;-69
2021/07/04 01:43:28;;;;;;;;;;;24.80;47.30;;;;;;1514867;76;1130;-69
2021/07/04 01:45:29;;;;;;;;;;;24.80;47.30;;;;;;1512829;76;809;-68
2021/07/04 01:47:31;;;;;;;;;;;24.70;47.40;;;;;;1517883;77;717;-67
2021/07/04 01:49:33;;;;;;;;;;;24.80;47.30;;;;;;1513539;76;1950;-67
2021/07/04 01:51:35;;;;;;;;;;;24.70;47.30;;;;;;1522440;77;749;-67
2021/07/04 01:53:38;;;;;;;;;;;24.80;47.30;;;;;;1515829;76;1134;-68
2021/07/04 01:55:40;;;;;;;;;;;24.80;47.30;;;;;;1511025;76;923;-67
2021/07/04 01:57:42;;;;;;;;;;;24.80;47.40;;;;;;1526199;76;713;-67
2021/07/04 01:59:44;;;;;;;;;;;24.70;47.30;;;;;;1518193;76;737;-67
2021/07/04 02:01:46;;;;;;;;;;;24.80;47.40;;;;;;1514382;77;697;-65
2021/07/04 02:03:49;;;;;;;;;;;24.70;47.50;;;;;;1521428;76;1126;-66
2021/07/04 02:05:51;;;;;;;;;;;24.70;47.50;;;;;;1514994;76;779;-67
2021/07/04 02:07:53;;;;;;;;;;;24.80;47.50;;;;;;1514773;76;805;-67
2021/07/04 02:09:54;;;;;;;;;;;24.80;47.50;;;;;;1521411;77;1940;-67
2021/07/04 02:11:56;;;;;;;;;;;24.80;47.60;;;;;;1523493;76;936;-70
2021/07/04 02:13:58;;;;;;;;;;;24.80;47.60;;;;;;1522799;76;1147;-70
2021/07/04 02:16:00;;;;;;;;;;;24.70;47.60;;;;;;1531973;77;783;-70
2021/07/04 02:18:06;;;;;;;;;;;24.70;47.70;;;;;;1519140;76;736;-69
2021/07/04 02:20:21;;;;;;;;;;;24.70;47.70;;;;;;1518609;76;702;-70
2021/07/04 02:22:23;;;;;;;;;;;24.70;47.80;;;;;;1519874;77;1576;-70
2021/07/04 02:24:25;;;;;;;;;;;24.60;47.70;;;;;;1514340;76;1142;-70
2021/07/04 02:26:27;;;;;;;;;;;24.70;47.80;;;;;;1514434;77;768;-71
2021/07/04 02:28:29;;;;;;;;;;;24.60;47.80;;;;;;1514056;76;876;-69
2021/07/04 02:30:31;;;;;;;;;;;24.60;47.80;;;;;;1515105;76;1917;-70
2021/07/04 02:32:33;;;;;;;;;;;24.60;47.80;;;;;;1515996;76;886;-70
2021/07/04 02:34:35;;;;;;;;;;;24.60;47.90;;;;;;1519388;76;1178;-71
2021/07/04 02:36:37;;;;;;;;;;;24.60;47.90;;;;;;1515686;76;765;-68
2021/07/04 02:38:39;;;;;;;;;;;24.60;48.00;;;;;;1525271;76;778;-70
2021/07/04 02:40:41;;;;;;;;;;;24.60;48.00;;;;;;1521062;76;890;-70
2021/07/04 02:42:43;;;;;;;;;;;24.60;48.10;;;;;;1522116;76;790;-70
2021/07/04 02:44:44;;;;;;;;;;;24.60;48.10;;;;;;1515461;76;1074;-70
2021/07/04 02:46:46;;;;;;;;;;;24.60;48.10;;;;;;1519852;76;722;-70
2021/07/04 02:48:48;;;;;;;;;;;24.50;48.10;;;;;;1518981;76;776;-69
2021/07/04 02:50:50;;;;;;;;;;;24.60;48.10;;;;;;1516187;76;1941;-70
2021/07/04 02:52:53;;;;;;;;;;;24.60;48.20;;;;;;1520600;77;754;-67
2021/07/04 02:54:54;;;;;;;;;;;24.60;48.20;;;;;;1522173;76;1158;-70
2021/07/04 02:56:56;;;;;;;;;;;24.50;48.20;;;;;;1514472;76;732;-70
2021/07/04 02:58:58;;;;;;;;;;;24.60;48.20;;;;;;1521259;76;742;-66
2021/07/04 03:01:00;;;;;;;;;;;24.50;48.30;;;;;;1526523;76;737;-66
2021/07/04 03:03:02;;;;;;;;;;;24.50;48.20;;;;;;1521230;76;1172;-65
2021/07/04 03:05:04;;;;;;;;;;;24.50;48.30;;;;;;1520013;76;704;-65
2021/07/04 03:07:06;;;;;;;;;;;24.50;48.30;;;;;;1532617;77;714;-65
2021/07/04 03:09:08;;;;;;;;;;;24.60;48.20;;;;;;1522010;76;751;-65
2021/07/04 03:11:11;;;;;;;;;;;24.60;48.20;;;;;;1526314;77;1952;-65
2021/07/04 03:13:12;;;;;;;;;;;24.60;48.20;;;;;;1518523;77;1143;-64
2021/07/04 03:15:15;;;;;;;;;;;24.60;48.20;;;;;;1522330;76;687;-65
2021/07/04 03:17:17;;;;;;;;;;;24.60;48.20;;;;;;1509913;76;770;-65
2021/07/04 03:19:18;;;;;;;;;;;24.50;48.20;;;;;;1514871;76;781;-65
2021/07/04 03:21:20;;;;;;;;;;;24.60;48.20;;;;;;1533617;76;712;-66
2021/07/04 03:23:22;;;;;;;;;;;24.50;48.20;;;;;;1533370;77;1131;-67
2021/07/04 03:25:24;;;;;;;;;;;24.50;48.20;;;;;;1538571;76;780;-65
2021/07/04 03:27:26;;;;;;;;;;;24.60;48.20;;;;;;1508532;76;765;-65
2021/07/04 03:29:28;;;;;;;;;;;24.50;48.20;;;;;;1523611;76;750;-67
2021/07/04 03:31:30;;;;;;;;;;;24.60;48.20;;;;;;1536937;75;1959;-66
2021/07/04 03:33:32;;;;;;;;;;;24.60;48.10;;;;;;1523202;76;1129;-65
2021/07/04 03:35:34;;;;;;;;;;;24.60;48.10;;;;;;1527658;76;714;-67
2021/07/04 03:37:36;;;;;;;;;;;24.60;48.20;;;;;;1523701;76;820;-67
2021/07/04 03:39:38;;;;;;;;;;;24.60;48.10;;;;;;1525002;76;748;-67
2021/07/04 03:41:40;;;;;;;;;;;24.60;48.10;;;;;;1527516;76;676;-67
2021/07/04 03:43:41;;;;;;;;;;;24.60;48.10;;;;;;1526482;76;1183;-68
2021/07/04 03:45:43;;;;;;;;;;;24.60;48.10;;;;;;1530955;76;977;-68
2021/07/04 03:47:45;;;;;;;;;;;24.60;48.10;;;;;;1521378;76;798;-67
2021/07/04 03:49:47;;;;;;;;;;;24.60;48.20;;;;;;1524623;77;761;-67
2021/07/04 03:51:49;;;;;;;;;;;24.60;48.10;;;;;;1523546;77;1944;-67
2021/07/04 03:53:51;;;;;;;;;;;24.60;48.20;;;;;;1528540;76;1117;-68
2021/07/04 03:55:53;;;;;;;;;;;24.60;48.10;;;;;;1526129;76;763;-67
2021/07/04 03:57:55;;;;;;;;;;;24.50;48.10;;;;;;1526123;77;764;-69
2021/07/04 03:59:57;;;;;;;;;;;24.60;48.10;;;;;;1527397;76;837;-69
2021/07/04 04:01:59;;;;;;;;;;;24.60;48.20;;;;;;1522670;76;823;-67
2021/07/04 04:04:01;;;;;;;;;;;24.60;48.10;;;;;;1502636;78;1159;-69
2021/07/04 04:06:03;;;;;;;;;;;24.60;48.20;;;;;;1516291;76;705;-69
2021/07/04 04:08:07;;;;;;;;;;;24.60;48.10;;;;;;1519766;76;804;-69
2021/07/04 04:10:09;;;;;;;;;;;24.60;48.10;;;;;;1526581;76;719;-69
2021/07/04 04:12:11;;;;;;;;;;;24.60;48.10;;;;;;1531357;76;672;-69
2021/07/04 04:14:13;;;;;;;;;;;24.60;48.20;;;;;;1530389;76;1114;-69
2021/07/04 04:16:15;;;;;;;;;;;24.60;48.10;;;;;;1529373;76;741;-69
2021/07/04 04:18:18;;;;;;;;;;;24.50;48.10;;;;;;1520429;77;764;-68
2021/07/04 04:20:20;;;;;;;;;;;24.60;48.10;;;;;;1519836;76;776;-68
2021/07/04 04:22:22;;;;;;;;;;;24.50;48.10;;;;;;1531696;76;780;-68
2021/07/04 04:24:24;;;;;;;;;;;24.60;48.20;;;;;;1524256;76;1136;-68
2021/07/04 04:26:26;;;;;;;;;;;24.60;48.10;;;;;;1513856;76;791;-67
2021/07/04 04:28:28;;;;;;;;;;;24.60;48.10;;;;;;1525130;76;787;-67
2021/07/04 04:30:30;;;;;;;;;;;24.60;48.10;;;;;;1530620;77;1939;-65
2021/07/04 04:32:32;;;;;;;;;;;24.60;48.10;;;;;;1529147;77;806;-68
2021/07/04 04:34:33;;;;;;;;;;;24.50;48.10;;;;;;1526977;76;1117;-66
2021/07/04 04:36:36;;;;;;;;;;;24.60;48.10;;;;;;1513467;76;745;-68
2021/07/04 04:38:37;;;;;;;;;;;24.60;48.20;;;;;;1520515;76;671;-67
2021/07/04 04:40:39;;;;;;;;;;;24.60;48.20;;;;;;1515477;76;765;-68
2021/07/04 04:42:41;;;;;;;;;;;24.60;48.10;;;;;;1509317;76;769;-68
2021/07/04 04:44:43;;;;;;;;;;;24.60;48.10;;;;;;1520656;77;1154;-67
2021/07/04 04:46:45;;;;;;;;;;;24.60;48.10;;;;;;1518038;77;799;-67
2021/07/04 04:48:47;;;;;;;;;;;24.60;48.10;;;;;;1515605;76;812;-66
2021/07/04 04:50:49;;;;;;;;;;;24.60;48.10;;;;;;1526061;76;1940;-66
2021/07/04 04:52:51;;;;;;;;;;;24.50;48.10;;;;;;1507763;76;746;-66
2021/07/04 04:54:53;;;;;;;;;;;24.60;48.10;;;;;;1518802;76;1103;-68
2021/07/04 04:56:54;;;;;;;;;;;24.60;48.10;;;;;;1526952;76;684;-68
2021/07/04 04:58:56;;;;;;;;;;;24.60;48.10;;;;;;1526095;76;723;-69
2021/07/04 05:00:58;;;;;;;;;;;24.50;48.10;;;;;;1508009;75;745;-69
2021/07/04 05:03:05;;;;;;;;;;;24.60;48.10;;;;;;1523442;76;1177;-67
2021/07/04 05:05:04;;;;;;;;;;;24.70;48.20;;;;;;1522440;76;1637;-68
2021/07/04 05:07:07;;;;;;;;;;;24.60;48.10;;;;;;1513774;76;753;-69
2021/07/04 05:09:09;;;;;;;;;;;24.60;48.10;;;;;;1524976;76;718;-69
2021/07/04 05:11:11;;;;;;;;;;;24.70;48.20;;;;;;1513262;75;1950;-69
2021/07/04 05:13:13;;;;;;;;;;;24.60;48.10;;;;;;1508646;76;1168;-69
2021/07/04 05:15:15;;;;;;;;;;;24.60;48.10;;;;;;1515524;76;765;-68
2021/07/04 05:17:17;;;;;;;;;;;24.60;48.10;;;;;;1526160;76;812;-66
2021/07/04 05:19:19;;;;;;;;;;;24.70;48.30;;;;;;1518256;76;816;-68
2021/07/04 05:21:21;;;;;;;;;;;24.60;48.10;;;;;;1524503;76;716;-67
2021/07/04 05:23:23;;;;;;;;;;;24.60;48.10;;;;;;1526416;76;1134;-71
2021/07/04 05:25:25;;;;;;;;;;;24.60;48.20;;;;;;1524299;76;818;-69
2021/07/04 05:27:26;;;;;;;;;;;24.60;48.20;;;;;;1526935;76;779;-69
2021/07/04 05:29:28;;;;;;;;;;;24.60;48.20;;;;;;1528600;76;805;-69
2021/07/04 05:31:30;;;;;;;;;;;24.60;48.20;;;;;;1531887;76;1948;-69
2021/07/04 05:33:32;;;;;;;;;;;24.60;48.20;;;;;;1523132;76;1107;-67
2021/07/04 05:35:34;;;;;;;;;;;24.60;48.20;;;;;;1529013;76;770;-69
2021/07/04 05:37:36;;;;;;;;;;;24.60;48.30;;;;;;1525481;76;825;-69
2021/07/04 05:39:38;;;;;;;;;;;24.60;48.20;;;;;;1524349;77;764;-68
2021/07/04 05:41:40;;;;;;;;;;;24.50;48.20;;;;;;1527771;76;780;-69
2021/07/04 05:43:43;;;;;;;;;;;24.60;48.30;;;;;;1518742;77;1509;-67
2021/07/04 05:45:44;;;;;;;;;;;24.70;48.60;;;;;;1518834;77;851;-67
2021/07/04 05:47:46;;;;;;;;;;;24.70;48.40;;;;;;1511627;76;860;-67
2021/07/04 05:49:48;;;;;;;;;;;24.60;48.20;;;;;;1520080;76;788;-67
2021/07/04 05:51:50;;;;;;;;;;;24.60;48.20;;;;;;1510944;76;1939;-67
2021/07/04 05:53:52;;;;;;;;;;;24.70;48.30;;;;;;1517674;76;1159;-67
2021/07/04 05:55:54;;;;;;;;;;;24.60;48.20;;;;;;1521645;76;746;-67
2021/07/04 05:57:56;;;;;;;;;;;24.60;48.20;;;;;;1514899;76;908;-68
2021/07/04 05:59:58;;;;;;;;;;;24.60;48.20;;;;;;1534926;76;724;-67
2021/07/04 06:01:59;;;;;;;;;;;24.60;48.20;;;;;;1520544;76;741;-67
2021/07/04 06:04:01;;;;;;;;;;;24.60;48.30;;;;;;1529319;76;1148;-68
2021/07/04 06:06:03;;;;;;;;;;;24.50;48.30;;;;;;1529249;76;689;-65
2021/07/04 06:08:05;;;;;;;;;;;24.50;48.30;;;;;;1520916;76;739;-67
2021/07/04 06:10:07;;;;;;;;;;;24.50;48.40;;;;;;1529017;76;760;-66
2021/07/04 06:12:09;;;;;;;;;;;24.60;48.40;;;;;;1527263;76;1936;-67
2021/07/04 06:14:11;;;;;;;;;;;24.60;48.40;;;;;;1528020;76;1056;-67
2021/07/04 06:16:13;;;;;;;;;;;24.60;48.40;;;;;;1538129;76;718;-67
2021/07/04 06:18:15;;;;;;;;;;;24.60;48.40;;;;;;1514408;76;769;-66
2021/07/04 06:20:17;;;;;;;;;;;24.50;48.40;;;;;;1513695;76;781;-65
2021/07/04 06:22:19;;;;;;;;;;;24.50;48.40;;;;;;1532198;76;766;-66
2021/07/04 06:24:21;;;;;;;;;;;24.50;48.40;;;;;;1529817;76;1144;-66
2021/07/04 06:26:23;;;;;;;;;;;24.50;48.50;;;;;;1520595;77;769;-66
2021/07/04 06:28:25;;;;;;;;;;;24.60;48.50;;;;;;1535325;76;779;-67
2021/07/04 06:30:27;;;;;;;;;;;24.50;48.50;;;;;;1529176;76;768;-68
2021/07/04 06:32:29;;;;;;;;;;;24.50;48.60;;;;;;1532819;76;1924;-68
2021/07/04 06:34:31;;;;;;;;;;;24.50;48.60;;;;;;1529177;76;1137;-67
2021/07/04 06:36:33;;;;;;;;;;;24.50;48.60;;;;;;1513914;76;766;-67
2021/07/04 06:38:34;;;;;;;;;;;24.50;48.60;;;;;;1534057;76;768;-68
2021/07/04 06:40:36;;;;;;;;;;;24.50;48.70;;;;;;1518593;76;812;-68
2021/07/04 06:42:38;;;;;;;;;;;24.50;48.70;;;;;;1522881;76;809;-68
2021/07/04 06:44:40;;;;;;;;;;;24.50;48.70;;;;;;1562495;71;2072;-64
2021/07/04 06:46:42;;;;;;;;;;;24.50;48.70;;;;;;1596523;73;796;-64
2021/07/04 06:48:44;;;;;;;;;;;24.50;48.60;;;;;;1597254;73;691;-64
2021/07/04 06:50:46;;;;;;;;;;;24.50;48.70;;;;;;1606145;74;681;-65
2021/07/04 06:52:48;;;;;;;;;;;24.50;48.70;;;;;;1607392;73;1936;-65
2021/07/04 06:54:49;;;;;;;;;;;24.50;48.70;;;;;;1585278;73;1198;-64
2021/07/04 06:56:51;;;;;;;;;;;24.50;48.80;;;;;;1573616;74;746;-66
2021/07/04 06:58:53;;;;;;;;;;;24.50;48.80;;;;;;1563220;74;801;-65
2021/07/04 07:00:55;;;;;;;;;;;24.50;48.90;;;;;;1572786;74;838;-65
2021/07/04 07:02:57;;;;;;;;;;;24.40;48.70;;;;;;1572183;74;698;-65
2021/07/04 07:04:59;;;;;;;;;;;24.40;48.80;;;;;;1568431;74;1133;-65
2021/07/04 07:07:01;;;;;;;;;;;24.50;48.90;;;;;;1569998;74;711;-65
2021/07/04 07:09:02;;;;;;;;;;;24.40;48.90;;;;;;1570247;74;677;-66
2021/07/04 07:11:04;;;;;;;;;;;24.50;49.00;;;;;;1567897;74;671;-67
2021/07/04 07:13:06;;;;;;;;;;;24.50;49.10;;;;;;1562960;74;1927;-67
2021/07/04 07:15:09;;;;;;;;;;;24.50;49.10;;;;;;1566987;74;1156;-66
2021/07/04 07:17:11;;;;;;;;;;;24.50;49.30;;;;;;1567907;74;980;-67
2021/07/04 07:19:12;;;;;;;;;;;24.50;49.30;;;;;;1571394;74;750;-66
2021/07/04 07:21:14;;;;;;;;;;;24.50;49.40;;;;;;1558768;74;738;-66
2021/07/04 07:23:16;;;;;;;;;;;24.60;49.30;;;;;;1568377;74;690;-64
2021/07/04 07:25:18;;;;;;;;;;;24.50;49.40;;;;;;1562513;74;1107;-66
2021/07/04 07:27:20;;;;;;;;;;;24.60;49.40;;;;;;1566251;74;750;-66
2021/07/04 07:29:22;;;;;;;;;;;24.60;49.40;;;;;;1566638;74;745;-66
2021/07/04 07:31:24;;;;;;;;;;;24.60;49.50;;;;;;1560988;74;1911;-66
2021/07/04 07:33:26;;;;;;;;;;;24.60;49.60;;;;;;1565890;74;666;-66
2021/07/04 07:35:30;;;;;;;;;;;24.60;49.60;;;;;;1560693;74;619;-66
2021/07/04 07:37:31;;;;;;;;;;;24.50;49.70;;;;;;1570120;74;1074;-64
2021/07/04 07:39:33;;;;;;;;;;;24.50;49.70;;;;;;1572484;74;611;-62
2021/07/04 07:41:35;;;;;;;;;;;24.60;49.90;;;;;;1567901;74;687;-64
2021/07/04 07:43:37;;;;;;;;;;;24.50;50.00;;;;;;1568337;74;1201;-65
2021/07/04 07:45:40;;;;;;;;;;;24.60;50.00;;;;;;1571497;74;758;-64
2021/07/04 07:47:42;;;;;;;;;;;24.60;50.00;;;;;;1566556;74;666;-64
2021/07/04 07:49:44;;;;;;;;;;;24.50;49.80;;;;;;1557625;74;796;-64
2021/07/04 07:51:49;;;;;;;;;;;24.50;49.90;;;;;;1567493;74;1928;-65
2021/07/04 07:53:49;;;;;;;;;;;24.50;50.00;;;;;;1559839;74;1224;-64
2021/07/04 07:55:51;;;;;;;;;;;24.50;50.30;;;;;;1566419;74;716;-65
2021/07/04 07:57:53;;;;;;;;;;;24.50;50.30;;;;;;1566642;74;716;-66
2021/07/04 07:59:55;;;;;;;;;;;24.60;50.10;;;;;;1556843;74;739;-65
2021/07/04 08:01:57;;;;;;;;;;;24.50;50.10;;;;;;1564762;74;726;-64
2021/07/04 08:03:59;;;;;;;;;;;24.60;50.00;;;;;;1567567;74;1149;-64
2021/07/04 08:06:00;;;;;;;;;;;24.50;50.00;;;;;;1563249;74;728;-65
2021/07/04 08:08:02;;;;;;;;;;;24.50;49.80;;;;;;1563926;74;688;-64
2021/07/04 08:10:05;;;;;;;;;;;24.60;49.70;;;;;;1566479;74;734;-64
2021/07/04 08:12:07;;;;;;;;;;;24.50;49.70;;;;;;1560222;74;1947;-64
2021/07/04 08:14:09;;;;;;;;;;;24.50;49.90;;;;;;1561824;74;1179;-65
2021/07/04 08:16:11;;;;;;;;;;;24.50;50.00;;;;;;1568545;74;670;-64
2021/07/04 08:18:13;;;;;;;;;;;24.50;50.20;;;;;;1566622;74;680;-65
2021/07/04 08:20:15;;;;;;;;;;;24.60;50.40;;;;;;1570459;74;740;-66
2021/07/04 08:22:17;;;;;;;;;;;24.60;50.40;;;;;;1557910;74;800;-65
2021/07/04 08:24:19;;;;;;;;;;;24.50;51.00;;;;;;1574597;74;1179;-65
2021/07/04 08:26:21;;;;;;;;;;;24.60;50.70;;;;;;1568625;74;799;-64
2021/07/04 08:28:22;;;;;;;;;;;24.60;50.70;;;;;;1568774;74;717;-64
2021/07/04 08:30:24;;;;;;;;;;;24.60;50.70;;;;;;1569933;74;738;-64
2021/07/04 08:32:26;;;;;;;;;;;24.70;50.70;;;;;;1567281;74;1937;-64
2021/07/04 08:34:28;;;;;;;;;;;24.80;50.70;;;;;;1576083;74;1161;-65
2021/07/04 08:36:32;;;;;;;;;;;24.80;50.20;;;;;;1573503;74;736;-64
2021/07/04 08:38:34;;;;;;;;;;;24.70;50.10;;;;;;1573618;74;677;-66
2021/07/04 08:40:36;;;;;;;;;;;24.70;50.00;;;;;;1566577;74;774;-67
2021/07/04 08:42:38;;;;;;;;;;;24.70;50.10;;;;;;1565824;74;748;-67
2021/07/04 08:44:41;;;;;;;;;;;24.70;50.30;;;;;;1567818;74;1181;-62
2021/07/04 08:46:43;;;;;;;;;;;24.70;50.10;;;;;;1571427;73;988;-63
2021/07/04 08:48:45;;;;;;;;;;;24.70;50.30;;;;;;1566708;74;724;-66
2021/07/04 08:50:47;;;;;;;;;;;24.70;50.20;;;;;;1570681;74;889;-66
2021/07/04 08:52:49;;;;;;;;;;;24.70;50.40;;;;;;1568236;74;1934;-65
2021/07/04 08:54:51;;;;;;;;;;;24.70;50.20;;;;;;1562529;74;1278;-66
2021/07/04 08:56:53;;;;;;;;;;;24.80;50.10;;;;;;1570741;74;717;-65
2021/07/04 08:58:55;;;;;;;;;;;24.80;50.00;;;;;;1572873;74;738;-67
2021/07/04 09:01:13;;;;;;;;;;;24.80;50.10;;;;;;1569752;74;706;-65
2021/07/04 09:03:24;;;;;;;;;;;24.80;49.90;;;;;;1563313;74;725;-66
2021/07/04 09:05:26;;;;;;;;;;;24.80;49.60;;;;;;1575422;74;1275;-67
2021/07/04 09:07:29;;;;;;;;;;;24.80;49.50;;;;;;1569127;74;742;-66
2021/07/04 09:09:33;;;;;;;;;;;24.70;49.60;;;;;;1562877;74;1121;-66
2021/07/04 09:11:35;;;;;;;;;;;24.70;49.70;;;;;;1564769;74;1102;-66
2021/07/04 09:13:37;;;;;;;;;;;24.70;49.70;;;;;;1567541;74;1923;-67
2021/07/04 09:15:39;;;;;;;;;;;24.60;49.50;;;;;;1576700;74;784;-66
2021/07/04 09:17:44;;;;;;;;;;;24.60;49.40;;;;;;1566603;74;835;-66
2021/07/04 09:19:53;;;;;;;;;;;24.70;49.70;;;;;;1563137;74;1236;-65
2021/07/04 09:22:01;;;;;;;;;;;24.70;49.50;;;;;;1565266;74;702;-67
2021/07/04 09:24:05;;;;;;;;;;;24.70;49.50;;;;;;1559046;74;1162;-67
2021/07/04 09:26:07;;;;;;;;;;;24.60;49.50;;;;;;1575309;74;1592;-67
2021/07/04 09:28:13;;;;;;;;;;;24.60;49.40;;;;;;1570399;74;687;-67
2021/07/04 09:30:16;;;;;;;;;;;24.70;49.40;;;;;;1567668;74;731;-65
2021/07/04 09:32:21;;;;;;;;;;;24.70;49.50;;;;;;1564378;74;1922;-66
2021/07/04 09:34:23;;;;;;;;;;;24.70;49.30;;;;;;1564526;74;1138;-67
2021/07/04 09:36:27;;;;;;;;;;;24.80;49.20;;;;;;1569280;74;743;-67
2021/07/04 09:38:36;;;;;;;;;;;24.80;49.30;;;;;;1559246;74;734;-68
2021/07/04 09:40:39;;;;;;;;;;;24.80;49.30;;;;;;1567486;74;780;-66
2021/07/04 09:43:00;;;;;;;;;;;24.80;49.50;;;;;;1576225;74;778;-65
2021/07/04 09:45:02;;;;;;;;;;;24.80;49.70;;;;;;1563150;74;1141;-65
2021/07/04 09:47:12;;;;;;;;;;;24.70;49.40;;;;;;1563484;74;796;-66
2021/07/04 09:49:16;;;;;;;;;;;24.80;49.20;;;;;;1561446;74;1386;-65
2021/07/04 09:51:22;;;;;;;;;;;24.80;49.20;;;;;;1562673;74;1623;-65
2021/07/04 09:53:33;;;;;;;;;;;24.80;49.50;;;;;;1579926;74;1897;-64
2021/07/04 09:55:35;;;;;;;;;;;24.80;49.20;;;;;;1560930;74;752;-65
2021/07/04 09:57:54;;;;;;;;;;;24.80;49.00;;;;;;1564106;74;833;-65
2021/07/04 10:00:14;;;;;;;;;;;24.80;49.00;;;;;;1573369;74;900;-65
2021/07/04 10:02:16;;;;;;;;;;;24.80;49.10;;;;;;1565545;74;727;-64
2021/07/04 10:04:31;;;;;;;;;;;24.80;48.90;;;;;;1562454;74;1134;-65
2021/07/04 10:06:35;;;;;;;;;;;24.90;49.00;;;;;;1575884;74;697;-65
2021/07/04 10:08:37;;;;;;;;;;;24.80;48.80;;;;;;1563993;74;1042;-63
2021/07/04 10:10:39;;;;;;;;;;;24.90;48.90;;;;;;1563807;74;722;-66
2021/07/04 10:12:41;;;;;;;;;;;24.70;48.40;;;;;;1566810;74;1924;-67
2021/07/04 10:14:43;;;;;;;;;;;24.80;48.70;;;;;;1568779;74;1134;-66
2021/07/04 10:16:45;;;;;;;;;;;24.80;48.60;;;;;;1599336;73;787;-66
2021/07/04 10:18:48;;;;;;;;;;;24.80;48.60;;;;;;1564772;74;764;-66
2021/07/04 10:20:50;;;;;;;;;;;24.80;48.40;;;;;;1570513;74;718;-66
2021/07/04 10:22:52;;;;;;;;;;;24.80;48.40;;;;;;1576872;74;790;-66
2021/07/04 10:24:54;;;;;;;;;;;24.80;48.30;;;;;;1572830;74;1155;-67
2021/07/04 10:26:56;;;;;;;;;;;24.80;48.30;;;;;;1576019;74;801;-65
2021/07/04 10:28:59;;;;;;;;;;;24.80;48.20;;;;;;1567940;74;791;-64
2021/07/04 10:31:02;;;;;;;;;;;24.70;48.20;;;;;;1562589;74;688;-66
2021/07/04 10:33:06;;;;;;;;;;;24.70;48.20;;;;;;1564066;74;1938;-66
2021/07/04 10:35:09;;;;;;;;;;;24.80;48.30;;;;;;1570853;74;1561;-66
2021/07/04 10:37:11;;;;;;;;;;;24.70;48.60;;;;;;1567692;74;738;-64
2021/07/04 10:39:13;;;;;;;;;;;24.70;48.60;;;;;;1572315;74;725;-65
2021/07/04 10:41:17;;;;;;;;;;;24.70;48.70;;;;;;1565282;74;777;-64
2021/07/04 10:43:37;;;;;;;;;;;24.70;48.60;;;;;;1572193;74;720;-64
2021/07/04 10:45:42;;;;;;;;;;;24.60;48.50;;;;;;1571085;74;740;-64
2021/07/04 10:47:44;;;;;;;;;;;24.80;48.60;;;;;;1577540;74;1617;-63
2021/07/04 10:49:47;;;;;;;;;;;24.80;48.70;;;;;;1563396;74;744;-63
2021/07/04 10:51:56;;;;;;;;;;;24.80;48.80;;;;;;1568218;74;687;-61
2021/07/04 10:53:58;;;;;;;;;;;24.80;48.80;;;;;;1568405;74;1930;-65
2021/07/04 10:56:00;;;;;;;;;;;24.80;48.70;;;;;;1569222;74;758;-65
2021/07/04 10:58:04;;;;;;;;;;;24.80;49.40;;;;;;1573680;74;733;-63
2021/07/04 11:00:10;;;;;;;;;;;24.80;49.70;;;;;;1567949;74;684;-64
2021/07/04 11:02:12;;;;;;;;;;;24.80;49.40;;;;;;1572346;74;691;-64
2021/07/04 11:04:30;;;;;;;;;;;24.80;49.20;;;;;;1593839;73;1186;-63
2021/07/04 11:06:43;;;;;;;;;;;24.80;49.40;;;;;;1576752;74;760;-63
2021/07/04 11:08:49;;;;;;;;;;;24.80;49.40;;;;;;1561076;74;1059;-65
2021/07/04 11:10:59;;;;;;;;;;;24.80;49.50;;;;;;1569053;74;1564;-64
2021/07/04 11:13:12;;;;;;;;;;;24.80;49.40;;;;;;1565713;74;1914;-64
2021/07/04 11:15:16;;;;;;;;;;;24.90;49.40;;;;;;1571727;74;1114;-65
2021/07/04 11:17:17;;;;;;;;;;;24.80;49.40;;;;;;1568194;74;708;-65
2021/07/04 11:19:19;;;;;;;;;;;24.90;49.50;;;;;;1566029;74;797;-66
2021/07/04 11:21:38;;;;;;;;;;;24.80;49.40;;;;;;1569047;74;719;-64
2021/07/04 11:23:40;;;;;;;;;;;24.80;49.50;;;;;;1569102;74;1149;-65
2021/07/04 11:25:51;;;;;;;;;;;24.90;49.60;;;;;;1575394;74;771;-66
2021/07/04 11:28:06;;;;;;;;;;;24.80;49.40;;;;;;1565993;74;1368;-65
2021/07/04 11:30:27;;;;;;;;;;;24.80;49.40;;;;;;1571456;74;1178;-66
2021/07/04 11:32:25;;;;;;;;;;;24.80;49.40;;;;;;1563058;74;1508;-65
2021/07/04 11:34:27;;;;;;;;;;;24.70;49.60;;;;;;1570707;74;1932;-65
2021/07/04 11:36:30;;;;;;;;;;;24.80;49.70;;;;;;1562463;74;777;-64
2021/07/04 11:38:37;;;;;;;;;;;24.80;49.90;;;;;;1559312;74;681;-64
2021/07/04 11:40:42;;;;;;;;;;;25.00;49.40;;;;;;1560947;74;1612;-67
2021/07/04 11:42:44;;;;;;;;;;;24.90;49.30;;;;;;1556415;74;740;-65
2021/07/04 11:44:49;;;;;;;;;;;25.00;49.30;;;;;;1562293;74;1123;-64
2021/07/04 11:46:51;;;;;;;;;;;25.00;49.10;;;;;;1560615;74;1170;-66
2021/07/04 11:49:00;;;;;;;;;;;25.00;49.20;;;;;;1566649;74;910;-68
2021/07/04 11:51:05;;;;;;;;;;;24.90;49.20;;;;;;1564342;74;704;-61
2021/07/04 11:53:06;;;;;;;;;;;25.00;49.30;;;;;;1566357;74;1937;-65
2021/07/04 11:55:08;;;;;;;;;;;25.00;49.50;;;;;;1562530;74;1143;-65
2021/07/04 11:59:31;;;;;;;;;;;25.00;49.60;;;;;;1565863;74;1641;-64
2021/07/04 12:01:33;;;;;;;;;;;25.00;49.90;;;;;;1570472;74;778;-61
2021/07/04 12:03:35;;;;;;;;;;;25.00;49.70;;;;;;1598660;73;1159;-64
2021/07/04 12:05:37;;;;;;;;;;;25.00;49.90;;;;;;1576066;74;753;-64
2021/07/04 12:07:38;;;;;;;;;;;25.00;49.70;;;;;;1573861;74;681;-64
2021/07/04 12:09:47;;;;;;;;;;;25.00;50.40;;;;;;1574418;74;741;-65
2021/07/04 12:11:54;;;;;;;;;;;25.00;50.10;;;;;;1575634;74;778;-64
2021/07/04 12:13:55;;;;;;;;;;;25.00;50.30;;;;;;1574389;74;1910;-64
2021/07/04 12:15:59;;;;;;;;;;;25.00;50.30;;;;;;1574402;74;791;-64